createdAt,value
2022-10-18T02:27:59.199Z,90.94
2022-10-18T02:38:20.823Z,91.16
2022-10-18T02:41:54.212Z,91.62
2022-10-18T07:35:58.842Z,92.98
2022-10-18T08:37:01.552Z,88.02
2022-10-18T08:39:31.184Z,88.11
2022-10-18T08:42:34.500Z,88.13
2022-10-18T08:45:17.700Z,88.64
2022-10-18T08:47:58.571Z,88.73
2022-10-18T08:50:34.958Z,88.68
2022-10-18T08:53:15.033Z,88.79
2022-10-18T08:55:47.276Z,88.74
2022-10-18T08:58:20.466Z,88.64
2022-10-18T09:01:02.054Z,88.51
2022-10-18T09:03:54.946Z,88.39
2022-10-18T09:06:31.220Z,88.16
2022-10-18T09:09:12.994Z,88.24
2022-10-18T09:11:52.441Z,88.30
2022-10-18T09:14:38.786Z,88.31
2022-10-18T09:17:18.649Z,88.11
2022-10-18T09:20:02.010Z,88.41
2022-10-18T09:22:41.033Z,88.21
2022-10-18T09:25:17.624Z,88.29
2022-10-18T09:27:52.889Z,88.10
2022-10-18T09:30:34.494Z,87.71
2022-10-18T09:33:12.018Z,87.46
2022-10-18T09:35:53.370Z,87.42
2022-10-18T10:28:04.242Z,88.44
2022-10-18T11:29:23.565Z,87.14
2022-10-18T11:34:51.572Z,87.78
2022-10-18T11:37:44.320Z,87.66
2022-10-18T11:40:29.032Z,88.43
2022-10-18T11:43:08.332Z,89.37
2022-10-18T11:45:43.967Z,89.82
2022-10-18T11:48:33.404Z,90.03
2022-10-18T11:51:15.136Z,89.47
2022-10-18T11:54:11.060Z,88.23
2022-10-18T11:56:58.276Z,86.92
2022-10-18T11:59:38.331Z,85.80
2022-10-18T12:02:32.405Z,85.58
2022-10-18T12:05:23.718Z,85.55
2022-10-18T12:07:59.793Z,84.97
2022-10-18T12:10:44.459Z,84.75
2022-10-18T12:13:54.972Z,84.51
2022-10-18T12:51:33.256Z,85.19
2022-10-18T12:54:15.470Z,85.31
2022-10-18T12:56:46.973Z,85.08
2022-10-18T12:59:55.248Z,84.50
2022-10-18T13:02:32.893Z,83.98
2022-10-18T13:05:03.875Z,83.44
2022-10-18T13:07:43.434Z,82.82
2022-10-18T13:10:42.614Z,82.51
2022-10-18T13:13:39.767Z,82.71
2022-10-18T13:16:27.363Z,83.00
2022-10-18T13:19:03.569Z,83.02
2022-10-18T13:21:49.824Z,82.97
2022-10-18T13:24:34.707Z,83.38
2022-10-18T13:27:35.892Z,83.03
2022-10-18T13:30:21.104Z,82.32
2022-10-18T13:32:58.117Z,82.50
2022-10-18T13:35:54.932Z,82.52
2022-10-18T13:38:48.600Z,82.01
2022-10-18T13:41:31.434Z,82.22
2022-10-18T13:44:29.270Z,82.46
2022-10-18T13:47:34.966Z,82.40
2022-10-18T13:50:37.787Z,82.31
2022-10-18T13:53:36.024Z,82.02
2022-10-18T13:56:42.748Z,81.88
2022-10-18T14:02:51.504Z,80.92
2022-10-18T14:05:59.160Z,79.81
2022-10-18T14:08:35.906Z,78.93
2022-10-18T14:11:07.442Z,78.68
2022-10-18T14:13:49.051Z,78.71
2022-10-18T14:16:37.804Z,78.91
2022-10-18T14:19:21.742Z,78.76
2022-10-18T14:22:01.156Z,78.34
2022-10-18T14:24:33.935Z,77.60
2022-10-18T14:27:14.523Z,76.87
2022-10-18T14:29:44.919Z,75.59
2022-10-18T14:32:30.707Z,75.53
2022-10-18T14:37:55.319Z,74.09
2022-10-18T14:40:34.150Z,74.00
2022-10-18T14:43:13.721Z,74.17
2022-10-18T14:45:44.675Z,74.28
2022-10-18T14:48:27.728Z,74.35
2022-10-18T14:51:14.412Z,74.97
2022-10-18T14:53:43.143Z,75.02
2022-10-18T14:56:52.253Z,75.06
2022-10-18T14:59:24.887Z,75.19
2022-10-18T15:02:05.289Z,75.09
2022-10-18T15:04:51.889Z,74.79
2022-10-18T15:07:21.264Z,74.77
2022-10-18T15:09:52.289Z,74.51
2022-10-18T15:12:21.274Z,74.51
2022-10-18T15:14:52.456Z,75.21
2022-10-18T15:17:25.985Z,75.12
2022-10-18T15:20:21.592Z,75.02
2022-10-18T15:22:52.317Z,74.56
2022-10-18T15:28:52.947Z,74.49
2022-10-18T15:34:23.497Z,74.55
2022-10-18T15:36:56.515Z,74.83
2022-10-18T15:39:26.182Z,74.00
2022-10-18T15:42:01.632Z,74.34
2022-10-18T15:44:50.637Z,74.54
2022-10-18T15:47:35.321Z,74.54
2022-10-18T15:50:39.208Z,75.27
2022-10-18T15:53:49.812Z,75.87
2022-10-18T15:56:33.606Z,76.38
2022-10-18T15:59:09.701Z,76.66
2022-10-18T16:01:44.041Z,76.87
2022-10-18T16:04:19.504Z,77.11
2022-10-18T16:06:47.762Z,77.64
2022-10-18T16:09:20.730Z,77.71
2022-10-18T16:11:58.223Z,78.13
2022-10-18T16:14:30.236Z,77.45
2022-10-18T16:24:29.754Z,78.50
2022-10-18T16:31:37.668Z,79.67
2022-10-18T16:37:54.744Z,80.83
2022-10-18T16:40:40.425Z,80.95
2022-10-18T17:03:14.156Z,84.47
2022-10-18T17:09:24.868Z,85.08
2022-10-18T17:15:15.733Z,85.49
2022-10-18T17:18:35.381Z,85.55
2022-10-18T17:21:18.707Z,85.89
2022-10-18T17:23:56.122Z,86.49
